Smiths Falls, Canada
Current Conditions -  °F | °C
As of 7:00 AM on Wednesday 26 Nov 2014 (Local Time) from CYOW Reporting Station
Broken Clouds Broken Clouds  
Wind Chill: 25°   Ceiling: 20000
Heat Index: 25°   Visibility: 15mi
Dew Point: 18°   Wind: 3mph
Humidity: 74%   Direction: 280°W
Pressure: 30.26"   Gusts: NA
Location:  44.9°N, 76.02°W
Report Text: CYOW 261200Z 28003KT 15SM FEW120 BKN200 M04/M08 A3026 RMK AC1CI5 AC TR PRESRR SLP251
Loading
Personal Weather Stations






























Interactive Weather Map New forecast layout! Learn more

10-Day Weather Forecast

Advertisements
Track Severe Weather on mobile